Terminal Aerodrome Forecast
Issued by NWS

Home | Current Version | Previous Version | Text Only | Print | Product List | Glossary On
Versions: 1 2 3 4 5 6 7 8 9 10 11 12 13 14 15 16 17
000
FTUS43 KGRR 242339 AAA
TAFMKG
TAF AMD
KMKG 242339Z 2500/2524 18022G35KT P6SM SCT120 SCT140 WS020/23045KT
     FM250300 23015G22KT P6SM OVC050 WS020/25050KT
     FM250600 28012G20KT 5SM -SHRA BR OVC015
     FM250900 30012G20KT P6SM OVC007
     FM251600 31017G26KT 5SM -DZ OVC012=

USA.gov is the U.S. government's official web portal to all federal, state and local government web resources and services.